Java, Virginia
Current Conditions -  °F | °C
As of 5:53 PM on Thursday 27 Nov 2014 (Local Time) from KDAN Reporting Station
Overcast Overcast  
Wind Chill: 36°   Ceiling: 5000
Heat Index: 42°   Visibility: 10mi
Dew Point: 25°   Wind: 12mph
Humidity: 51%   Direction: 300°WNW
Pressure: 30.17"   Gusts: 21mph
Location:  36.84°N, 79.23°W
Report Text: KDAN 272253Z AUTO 30010G18KT 10SM OVC050 06/M04 A3017 RMK AO2 SLP213 T00561039
Loading
Personal Weather Stations






























Interactive Weather Map New forecast layout! Learn more

10-Day Weather Forecast

Advertisements
Track Severe Weather on mobile